Terminal Aerodrome Forecast
Issued by NWS

Home | Current Version | Previous Version | Text Only | Print | Product List | Glossary On
Versions: 1 2 3 4 5 6 7 8 9 10 11 12 13 14 15 16 17 18 19 20 21 22 23
373
FTUS46 KMTR 162341
TAFSTS
TAF
KSTS 162341Z 1700/1724 VRB03KT P6SM FEW009
     FM170400 00000KT 1/2SM FG VV002
     FM170600 00000KT 1/4SM FG VV002
     FM171900 VRB03KT 3SM BR OVC003
     FM172100 15003KT P6SM SCT005=

USA.gov is the U.S. government's official web portal to all federal, state and local government web resources and services.